Time;durP1;ratioP1;P1;durP2;ratioP2;P2;SDS_P1;SDS_P2;PMS_P1;PMS_P2;Temp;Humidity;BMP_temperature;BMP_pressure;BME280_temperature;BME280_humidity;BME280_pressure;Samples;Min_cycle;Max_cycle;Signal;HPM_P1;HPM_P2
2021/08/17 00:00:44;;;;;;;;;;;;;;;26.98;58.19;101123.25;5102316;28;1639;-60
2021/08/17 00:03:12;;;;;;;;;;;;;;;26.99;58.24;101124.94;5097633;28;1493;-61
2021/08/17 00:05:40;;;;;;;;;;;;;;;26.96;58.29;101126.03;5107432;28;1191;-61
2021/08/17 00:08:08;;;;;;;;;;;;;;;26.96;58.36;101128.72;5104101;28;1883;-62
2021/08/17 00:10:38;;;;;;;;;;;;;;;26.89;58.87;101132.91;5106284;28;1200;-61
2021/08/17 00:13:09;;;;;;;;;;;;;;;26.94;58.37;101119.13;5104781;28;1308;-61
2021/08/17 00:15:40;;;;;;;;;;;;;;;26.89;58.89;101113.34;5079598;28;1359;-69
2021/08/17 00:18:07;;;;;;;;;;;;;;;26.76;59.18;101118.84;5065193;28;1244;-62
2021/08/17 00:20:35;;;;;;;;;;;;;;;26.71;59.31;101122.91;5065156;28;1947;-63
2021/08/17 00:23:02;;;;;;;;;;;;;;;26.48;60.20;101112.31;5065462;28;1175;-62
2021/08/17 00:25:30;;;;;;;;;;;;;;;26.68;58.67;101115.13;5066848;28;1233;-63
2021/08/17 00:27:59;;;;;;;;;;;;;;;26.70;59.78;101118.53;5066774;28;1980;-64
2021/08/17 00:30:26;;;;;;;;;;;;;;;26.63;59.91;101118.19;5067099;28;1283;-64
2021/08/17 00:32:54;;;;;;;;;;;;;;;26.71;59.24;101120.22;5067756;28;817;-65
2021/08/17 00:35:25;;;;;;;;;;;;;;;26.57;60.17;101111.53;5065890;28;1375;-63
2021/08/17 00:37:53;;;;;;;;;;;;;;;26.48;60.63;101120.31;5066619;28;810;-64
2021/08/17 00:40:20;;;;;;;;;;;;;;;26.63;60.18;101112.84;5081883;28;1370;-64
2021/08/17 00:42:48;;;;;;;;;;;;;;;26.60;59.65;101111.28;5068137;28;1378;-64
2021/08/17 00:45:20;;;;;;;;;;;;;;;26.61;60.12;101112.97;5087380;28;1228;-65
2021/08/17 00:47:50;;;;;;;;;;;;;;;26.60;60.11;101113.94;5086717;28;1906;-64
2021/08/17 00:50:20;;;;;;;;;;;;;;;26.63;60.48;101104.00;5085487;28;1278;-63
2021/08/17 00:52:56;;;;;;;;;;;;;;;26.68;60.36;101109.78;5086483;28;966;-65
2021/08/17 00:55:24;;;;;;;;;;;;;;;26.66;60.09;101106.41;5085422;28;1293;-63
2021/08/17 00:57:52;;;;;;;;;;;;;;;26.62;60.81;101103.16;5086634;28;858;-65
2021/08/17 01:00:20;;;;;;;;;;;;;;;26.63;60.35;101106.69;5103270;28;1512;-64
2021/08/17 01:02:48;;;;;;;;;;;;;;;26.63;60.86;101098.66;5107277;28;777;-63
2021/08/17 01:05:16;;;;;;;;;;;;;;;26.66;60.02;101098.41;5089808;28;1257;-65
2021/08/17 01:07:43;;;;;;;;;;;;;;;26.51;61.08;101093.34;5089750;28;1906;-64
2021/08/17 01:10:10;;;;;;;;;;;;;;;26.61;60.68;101091.59;5108221;28;1299;-64
2021/08/17 01:12:38;;;;;;;;;;;;;;;26.63;60.57;101088.78;5108194;28;774;-65
2021/08/17 01:15:08;;;;;;;;;;;;;;;26.68;60.61;101088.41;5108429;28;1346;-64
2021/08/17 01:17:34;;;;;;;;;;;;;;;26.62;60.04;101092.47;5108028;28;923;-64
2021/08/17 01:20:01;;;;;;;;;;;;;;;26.54;61.15;101085.09;5108360;28;1338;-64
2021/08/17 01:22:28;;;;;;;;;;;;;;;26.60;61.07;101089.91;5108085;28;825;-64
2021/08/17 01:24:55;;;;;;;;;;;;;;;26.66;60.90;101088.53;5074193;28;1242;-64
2021/08/17 01:27:22;;;;;;;;;;;;;;;26.59;60.82;101087.38;5111913;28;1965;-64
2021/08/17 01:29:48;;;;;;;;;;;;;;;26.52;60.60;101081.69;5112263;28;1140;-64
2021/08/17 01:32:18;;;;;;;;;;;;;;;26.56;60.83;101088.50;5111746;28;1302;-64
2021/08/17 01:34:44;;;;;;;;;;;;;;;26.53;60.80;101087.91;5112002;28;1059;-65
2021/08/17 01:37:11;;;;;;;;;;;;;;;26.45;61.16;101091.19;5111703;28;1216;-65
2021/08/17 01:39:38;;;;;;;;;;;;;;;26.59;59.61;101090.91;5111764;28;1437;-65
2021/08/17 01:42:06;;;;;;;;;;;;;;;26.41;60.39;101091.59;5111329;28;1184;-65
2021/08/17 01:44:33;;;;;;;;;;;;;;;26.51;60.06;101092.50;5126838;27;888;-64
2021/08/17 01:46:59;;;;;;;;;;;;;;;26.59;59.82;101088.22;5111550;28;1278;-65
2021/08/17 01:49:26;;;;;;;;;;;;;;;26.56;59.85;101083.16;5111398;28;1926;-64
2021/08/17 01:51:53;;;;;;;;;;;;;;;26.59;59.68;101087.38;5111350;28;1232;-64
2021/08/17 01:54:20;;;;;;;;;;;;;;;26.59;59.00;101087.38;5111295;28;1051;-64
2021/08/17 01:56:47;;;;;;;;;;;;;;;26.60;58.35;101094.41;5126233;27;1455;-64
2021/08/17 01:59:14;;;;;;;;;;;;;;;26.67;57.90;101084.03;5110925;28;1055;-65
2021/08/17 02:01:41;;;;;;;;;;;;;;;26.54;57.16;101095.75;5111242;28;1192;-65
2021/08/17 02:04:08;;;;;;;;;;;;;;;26.60;56.28;101095.25;5111411;27;1171;-65
2021/08/17 02:06:35;;;;;;;;;;;;;;;26.56;55.67;101098.31;5110808;28;1169;-65
2021/08/17 02:09:02;;;;;;;;;;;;;;;26.45;54.39;101090.34;5055834;28;1971;-65
2021/08/17 02:11:29;;;;;;;;;;;;;;;26.37;51.76;101091.00;5089455;28;1177;-65
2021/08/17 02:13:56;;;;;;;;;;;;;;;26.37;51.60;101092.81;5062087;28;1296;-65
2021/08/17 02:16:22;;;;;;;;;;;;;;;26.34;49.51;101099.28;5070013;28;1219;-62
2021/08/17 02:18:49;;;;;;;;;;;;;;;26.22;48.06;101094.97;5078509;28;1022;-63
2021/08/17 02:21:16;;;;;;;;;;;;;;;26.20;46.96;101093.38;5070789;28;1311;-64
2021/08/17 02:23:42;;;;;;;;;;;;;;;26.18;46.27;101088.16;5071977;28;1057;-64
2021/08/17 02:26:09;;;;;;;;;;;;;;;26.13;46.22;101087.69;5090426;28;1301;-64
2021/08/17 02:28:36;;;;;;;;;;;;;;;26.16;45.47;101099.94;5084471;28;1914;-64
2021/08/17 02:31:02;;;;;;;;;;;;;;;26.11;45.84;101086.13;5069636;28;1317;-63
2021/08/17 02:33:29;;;;;;;;;;;;;;;26.08;45.22;101089.88;5069836;28;1039;-62
2021/08/17 02:35:56;;;;;;;;;;;;;;;26.10;45.69;101095.94;5084246;28;1234;-63
2021/08/17 02:38:22;;;;;;;;;;;;;;;26.01;45.11;101096.69;5069618;28;1139;-64
2021/08/17 02:40:49;;;;;;;;;;;;;;;25.98;44.92;101086.28;5089067;28;1452;-63
2021/08/17 02:43:17;;;;;;;;;;;;;;;26.00;45.02;101095.84;5089860;28;1111;-63
2021/08/17 02:45:44;;;;;;;;;;;;;;;25.99;44.51;101096.81;5089882;28;1189;-63
2021/08/17 02:48:11;;;;;;;;;;;;;;;25.87;44.50;101088.97;5089893;28;1963;-63
2021/08/17 02:50:37;;;;;;;;;;;;;;;25.98;44.74;101096.94;5089765;28;1208;-63
2021/08/17 02:53:04;;;;;;;;;;;;;;;25.89;44.86;101087.88;5089643;28;1129;-63
2021/08/17 02:55:31;;;;;;;;;;;;;;;26.03;44.19;101087.59;5071050;28;1306;-64
2021/08/17 02:58:01;;;;;;;;;;;;;;;25.91;43.80;101091.25;5088110;28;1045;-64
2021/08/17 03:00:28;;;;;;;;;;;;;;;25.89;44.33;101087.88;5071130;28;1381;-63
2021/08/17 03:02:54;;;;;;;;;;;;;;;25.90;42.83;101078.06;5089335;28;838;-62
2021/08/17 03:05:21;;;;;;;;;;;;;;;25.94;42.42;101091.00;5089119;28;1302;-63
2021/08/17 03:07:53;;;;;;;;;;;;;;;25.76;42.66;101092.50;5070652;28;1905;-64
2021/08/17 03:10:22;;;;;;;;;;;;;;;25.72;42.96;101087.53;5089611;28;1200;-64
2021/08/17 03:12:49;;;;;;;;;;;;;;;25.83;43.32;101090.19;5089169;28;821;-64
2021/08/17 03:15:16;;;;;;;;;;;;;;;25.85;43.73;101081.09;5089607;28;1368;-64
2021/08/17 03:17:42;;;;;;;;;;;;;;;25.81;43.30;101089.44;5089084;28;885;-63
2021/08/17 03:20:11;;;;;;;;;;;;;;;25.72;43.78;101087.53;5105024;28;1383;-63
2021/08/17 03:22:38;;;;;;;;;;;;;;;25.79;44.13;101088.72;5089472;28;975;-64
2021/08/17 03:25:05;;;;;;;;;;;;;;;25.69;42.68;101090.44;5088154;28;1283;-64
2021/08/17 03:27:32;;;;;;;;;;;;;;;25.69;42.19;101085.09;5089670;28;1905;-65
2021/08/17 03:29:59;;;;;;;;;;;;;;;25.52;42.22;101095.34;5089640;28;1275;-62
2021/08/17 03:32:26;;;;;;;;;;;;;;;25.53;41.96;101089.00;5089251;28;1182;-63
2021/08/17 03:35:00;;;;;;;;;;;;;;;25.59;42.17;101086.84;5089195;28;1274;-64
2021/08/17 03:37:27;;;;;;;;;;;;;;;25.54;41.21;101087.19;5087258;28;1206;-63
2021/08/17 03:39:54;;;;;;;;;;;;;;;25.47;41.27;101091.31;5088834;28;1271;-64
2021/08/17 03:42:21;;;;;;;;;;;;;;;25.41;41.23;101091.81;5087174;28;1275;-64
2021/08/17 03:44:48;;;;;;;;;;;;;;;25.36;41.31;101089.47;5104164;28;1444;-64
2021/08/17 03:47:14;;;;;;;;;;;;;;;25.35;41.27;101093.09;5088195;28;1236;-64
2021/08/17 03:49:41;;;;;;;;;;;;;;;25.44;40.76;101091.56;5087238;28;1897;-64
2021/08/17 03:52:08;;;;;;;;;;;;;;;25.26;42.21;101088.50;5053531;28;1470;-65
2021/08/17 03:54:35;;;;;;;;;;;;;;;25.14;41.75;101097.47;5088920;28;1098;-65
2021/08/17 03:57:01;;;;;;;;;;;;;;;25.16;41.65;101098.22;5069691;28;1327;-63
2021/08/17 03:59:29;;;;;;;;;;;;;;;25.16;41.43;101103.56;5088499;28;1046;-63
2021/08/17 04:01:55;;;;;;;;;;;;;;;25.08;41.86;101095.28;5088665;28;1314;-63
2021/08/17 04:04:22;;;;;;;;;;;;;;;25.23;41.62;101102.06;5088289;28;1130;-63
2021/08/17 04:06:49;;;;;;;;;;;;;;;25.17;41.58;101104.41;5087980;28;1283;-63
2021/08/17 04:09:16;;;;;;;;;;;;;;;25.24;42.80;101106.44;5070143;28;1938;-63
2021/08/17 04:11:43;;;;;;;;;;;;;;;25.13;41.84;101098.47;5070367;28;1208;-63
2021/08/17 04:14:09;;;;;;;;;;;;;;;25.07;42.19;101098.94;5088309;28;1091;-64
2021/08/17 04:16:36;;;;;;;;;;;;;;;25.19;41.65;101094.47;5069838;28;1334;-64
2021/08/17 04:19:03;;;;;;;;;;;;;;;25.16;41.82;101097.38;5088250;28;988;-63
2021/08/17 04:21:30;;;;;;;;;;;;;;;25.06;41.45;101091.91;5085998;28;1220;-63
2021/08/17 04:23:58;;;;;;;;;;;;;;;25.09;41.71;101091.66;5086629;28;1451;-63
2021/08/17 04:26:25;;;;;;;;;;;;;;;25.04;41.93;101090.31;5069795;28;1612;-65
2021/08/17 04:28:52;;;;;;;;;;;;;;;24.96;41.75;101090.91;5088266;28;1914;-63
2021/08/17 04:31:19;;;;;;;;;;;;;;;25.05;42.12;101094.69;5087813;28;1214;-63
2021/08/17 04:34:07;;;;;;;;;;;;;;;25.00;42.09;101097.72;5085845;28;1043;-63
2021/08/17 04:36:53;;;;;;;;;;;;;;;24.76;42.22;101094.25;5087319;28;1514;-63
2021/08/17 04:39:21;;;;;;;;;;;;;;;24.93;42.37;101096.47;5088123;28;1297;-63
2021/08/17 04:41:48;;;;;;;;;;;;;;;24.92;42.16;101105.47;5087931;28;1301;-63
2021/08/17 04:44:14;;;;;;;;;;;;;;;24.84;43.35;101107.84;5087518;28;1026;-63
2021/08/17 04:46:41;;;;;;;;;;;;;;;24.72;43.10;101106.09;5088036;28;1239;-63
2021/08/17 04:49:08;;;;;;;;;;;;;;;24.63;42.77;101117.44;5087957;28;1902;-62
2021/08/17 04:51:39;;;;;;;;;;;;;;;24.65;42.73;101110.22;5086156;28;1299;-63
2021/08/17 04:54:06;;;;;;;;;;;;;;;24.51;42.83;101118.38;5087674;28;1224;-63
2021/08/17 04:56:33;;;;;;;;;;;;;;;24.52;43.32;101122.75;5088166;28;1315;-63
2021/08/17 04:59:02;;;;;;;;;;;;;;;24.73;43.05;101126.44;5088689;28;1053;-63
2021/08/17 05:01:30;;;;;;;;;;;;;;;24.75;42.62;101129.81;5073769;28;1258;-64
2021/08/17 05:03:58;;;;;;;;;;;;;;;24.68;42.88;101133.94;5090780;28;1097;-64
2021/08/17 05:06:24;;;;;;;;;;;;;;;24.57;43.29;101133.88;5091910;28;1257;-63
2021/08/17 05:08:51;;;;;;;;;;;;;;;24.68;42.77;101145.47;5091678;28;1971;-63
2021/08/17 05:11:18;;;;;;;;;;;;;;;24.60;43.35;101142.50;5091605;28;1220;-63
2021/08/17 05:13:44;;;;;;;;;;;;;;;24.59;43.34;101139.97;5091663;28;1178;-63
2021/08/17 05:16:11;;;;;;;;;;;;;;;24.58;43.29;101140.94;5091474;28;1208;-64
2021/08/17 05:18:38;;;;;;;;;;;;;;;24.54;43.43;101140.31;5091851;28;1148;-63
2021/08/17 05:21:04;;;;;;;;;;;;;;;24.64;43.08;101148.44;5090522;28;1323;-65
2021/08/17 05:23:31;;;;;;;;;;;;;;;24.58;43.75;101157.75;5091525;28;1144;-62
2021/08/17 05:25:58;;;;;;;;;;;;;;;24.46;43.25;101154.22;5091337;28;1201;-64
2021/08/17 05:28:24;;;;;;;;;;;;;;;24.50;43.19;101156.63;5091442;28;1983;-62
2021/08/17 05:30:51;;;;;;;;;;;;;;;24.48;42.93;101152.28;5091250;28;1319;-63
2021/08/17 05:33:18;;;;;;;;;;;;;;;24.40;42.99;101161.78;5091811;28;1058;-63
2021/08/17 05:35:45;;;;;;;;;;;;;;;24.38;42.96;101155.72;5091305;28;1245;-62
2021/08/17 05:38:11;;;;;;;;;;;;;;;24.45;42.71;101159.63;5091351;28;1053;-63
2021/08/17 05:40:38;;;;;;;;;;;;;;;24.41;42.96;101156.34;5091376;28;1687;-63
2021/08/17 05:43:09;;;;;;;;;;;;;;;24.46;43.38;101162.19;5091369;28;1041;-64
2021/08/17 05:45:56;;;;;;;;;;;;;;;24.40;43.06;101161.78;5091157;28;1346;-62
2021/08/17 05:48:23;;;;;;;;;;;;;;;24.37;43.27;101173.53;5089549;28;1910;-64
2021/08/17 05:50:50;;;;;;;;;;;;;;;24.41;42.88;101174.13;5090406;28;1221;-64
2021/08/17 05:53:16;;;;;;;;;;;;;;;24.28;43.13;101182.19;5090707;28;1271;-64
2021/08/17 05:55:43;;;;;;;;;;;;;;;24.35;43.79;101179.91;5090703;28;1318;-64
2021/08/17 05:58:10;;;;;;;;;;;;;;;24.35;43.24;101172.78;5090997;28;1131;-64
2021/08/17 06:00:36;;;;;;;;;;;;;;;24.19;43.20;101182.00;5094800;28;1435;-63
2021/08/17 06:03:07;;;;;;;;;;;;;;;24.18;43.28;101178.50;5110663;28;1120;-64
2021/08/17 06:05:34;;;;;;;;;;;;;;;24.01;43.15;101181.50;5110765;28;1232;-63
2021/08/17 06:08:01;;;;;;;;;;;;;;;23.96;43.24;101188.94;5126167;27;1247;-65
2021/08/17 06:10:28;;;;;;;;;;;;;;;24.15;43.11;101185.84;5124585;27;1910;-67
2021/08/17 06:12:55;;;;;;;;;;;;;;;24.12;43.04;101189.59;5110009;28;929;-72
2021/08/17 06:15:22;;;;;;;;;;;;;;;24.22;43.11;101190.63;5109477;28;1228;-72
2021/08/17 06:17:49;;;;;;;;;;;;;;;24.01;43.42;101193.97;5109156;28;763;-73
2021/08/17 06:20:16;;;;;;;;;;;;;;;24.04;43.08;101197.25;5108676;28;1324;-74
2021/08/17 06:22:43;;;;;;;;;;;;;;;24.09;43.02;101200.41;5124480;27;1803;-72
2021/08/17 06:25:10;;;;;;;;;;;;;;;23.97;43.30;101203.97;5109541;28;1274;-69
2021/08/17 06:27:37;;;;;;;;;;;;;;;24.04;43.16;101210.56;5109210;28;758;-70
2021/08/17 06:30:05;;;;;;;;;;;;;;;23.89;43.20;101211.66;5109669;28;1909;-71
2021/08/17 06:32:51;;;;;;;;;;;;;;;23.94;43.50;101201.53;5109173;28;1150;-70
2021/08/17 06:35:18;;;;;;;;;;;;;;;23.79;43.55;101210.59;5109062;28;1377;-70
2021/08/17 06:37:44;;;;;;;;;;;;;;;23.85;44.10;101202.19;5109372;28;1205;-68
2021/08/17 06:40:11;;;;;;;;;;;;;;;24.00;43.49;101206.41;5108894;28;1302;-68
2021/08/17 06:42:38;;;;;;;;;;;;;;;24.03;44.50;101208.00;5108812;28;1313;-69
2021/08/17 06:45:05;;;;;;;;;;;;;;;23.92;43.65;101198.13;5108567;28;1605;-70
2021/08/17 06:47:32;;;;;;;;;;;;;;;24.13;43.34;101206.41;5108904;28;833;-70
2021/08/17 06:49:59;;;;;;;;;;;;;;;24.28;42.95;101205.28;5109131;28;1917;-68
2021/08/17 06:52:26;;;;;;;;;;;;;;;24.33;42.72;101203.13;5108904;28;1067;-68
2021/08/17 06:54:52;;;;;;;;;;;;;;;24.19;42.77;101212.16;5108821;28;944;-68
2021/08/17 06:57:19;;;;;;;;;;;;;;;24.13;43.47;101217.06;5090334;28;1382;-68
2021/08/17 06:59:46;;;;;;;;;;;;;;;23.89;43.91;101219.63;5108960;28;1531;-70
2021/08/17 07:02:12;;;;;;;;;;;;;;;24.08;43.50;101217.34;5109860;28;1224;-69
2021/08/17 07:04:39;;;;;;;;;;;;;;;24.26;42.87;101224.03;5091507;28;1079;-70
2021/08/17 07:07:06;;;;;;;;;;;;;;;24.18;43.39;101226.41;5108708;28;1220;-68
2021/08/17 07:09:33;;;;;;;;;;;;;;;24.21;43.04;101225.31;5108229;28;1913;-69
2021/08/17 07:11:59;;;;;;;;;;;;;;;24.30;42.97;101224.66;5108202;28;1314;-68
2021/08/17 07:14:26;;;;;;;;;;;;;;;24.36;42.92;101214.41;5108793;28;1129;-68
2021/08/17 07:16:53;;;;;;;;;;;;;;;24.49;43.19;101217.03;5090078;28;1334;-73
2021/08/17 07:19:20;;;;;;;;;;;;;;;24.42;42.75;101224.63;5108282;28;1075;-70
2021/08/17 07:21:47;;;;;;;;;;;;;;;24.52;42.60;101227.47;5089195;28;1240;-69
2021/08/17 07:24:13;;;;;;;;;;;;;;;24.50;42.87;101226.69;5107872;28;1081;-69
2021/08/17 07:26:40;;;;;;;;;;;;;;;24.60;42.76;101221.56;5088855;28;1407;-66
2021/08/17 07:29:07;;;;;;;;;;;;;;;24.66;42.63;101226.44;5106999;28;1933;-67
2021/08/17 07:31:36;;;;;;;;;;;;;;;24.74;42.48;101218.72;5108121;28;1346;-69
2021/08/17 07:34:05;;;;;;;;;;;;;;;24.78;42.71;101218.38;5108284;28;1216;-67
2021/08/17 07:36:33;;;;;;;;;;;;;;;24.79;42.58;101219.22;5107008;28;1369;-67
2021/08/17 07:38:59;;;;;;;;;;;;;;;24.77;42.72;101221.16;5107024;28;1506;-73
2021/08/17 07:41:26;;;;;;;;;;;;;;;24.85;42.51;101218.78;5107812;28;1294;-72
2021/08/17 07:43:53;;;;;;;;;;;;;;;24.82;42.50;101211.03;5107545;28;1279;-70
2021/08/17 07:46:23;;;;;;;;;;;;;;;24.92;42.23;101222.72;5107405;28;1346;-72
2021/08/17 07:48:50;;;;;;;;;;;;;;;24.94;42.13;101223.44;5107822;28;1918;-69
2021/08/17 07:51:16;;;;;;;;;;;;;;;24.91;42.47;101218.34;5106929;28;1244;-68
2021/08/17 07:53:43;;;;;;;;;;;;;;;24.96;42.24;101219.69;5106639;28;1396;-67
2021/08/17 07:56:10;;;;;;;;;;;;;;;25.04;42.32;101221.78;5106035;28;1269;-70
2021/08/17 07:58:37;;;;;;;;;;;;;;;25.01;42.20;101222.00;5106787;28;1228;-70
2021/08/17 08:01:04;;;;;;;;;;;;;;;24.99;42.49;101221.25;5107077;28;1299;-65
2021/08/17 08:03:33;;;;;;;;;;;;;;;25.06;41.90;101225.16;5122836;27;1602;-69
2021/08/17 08:06:00;;;;;;;;;;;;;;;25.09;42.32;101227.59;5104652;28;1358;-73
2021/08/17 08:08:27;;;;;;;;;;;;;;;25.09;41.68;101230.25;5105703;28;1236;-69
2021/08/17 08:10:54;;;;;;;;;;;;;;;25.21;42.44;101231.13;5105313;28;1918;-66
2021/08/17 08:13:21;;;;;;;;;;;;;;;25.22;41.80;101231.03;5103421;28;1201;-70
2021/08/17 08:15:48;;;;;;;;;;;;;;;25.15;41.34;101231.59;5105441;28;1216;-68
2021/08/17 08:18:15;;;;;;;;;;;;;;;25.13;41.39;101237.06;5106795;28;1033;-67
2021/08/17 08:20:42;;;;;;;;;;;;;;;25.13;41.38;101234.41;5105818;28;1233;-66
2021/08/17 08:23:09;;;;;;;;;;;;;;;25.19;41.42;101239.28;5105234;28;1148;-67
2021/08/17 08:25:37;;;;;;;;;;;;;;;25.20;41.29;101243.63;5088538;28;1492;-67
2021/08/17 08:28:04;;;;;;;;;;;;;;;25.21;41.37;101240.00;5108510;28;1050;-66
2021/08/17 08:30:31;;;;;;;;;;;;;;;25.25;41.49;101235.28;5108341;28;1990;-64
2021/08/17 08:32:58;;;;;;;;;;;;;;;25.37;41.94;101240.53;5107543;28;1603;-67
2021/08/17 08:35:28;;;;;;;;;;;;;;;25.47;41.75;101236.16;5111063;28;1251;-67
2021/08/17 08:37:55;;;;;;;;;;;;;;;25.40;41.69;101234.94;5093411;28;1545;-67
2021/08/17 08:40:24;;;;;;;;;;;;;;;25.44;41.78;101231.06;5093222;28;1435;-64
2021/08/17 08:42:52;;;;;;;;;;;;;;;25.50;41.54;101225.28;5112386;28;804;-65
2021/08/17 08:45:21;;;;;;;;;;;;;;;25.51;41.32;101227.00;5093118;28;1368;-65
2021/08/17 08:47:47;;;;;;;;;;;;;;;25.59;41.85;101228.22;5111828;28;824;-68
2021/08/17 08:50:15;;;;;;;;;;;;;;;25.65;41.77;101241.94;5111923;28;1975;-65
2021/08/17 08:52:42;;;;;;;;;;;;;;;25.63;41.83;101235.00;5093153;28;1300;-70
2021/08/17 08:55:18;;;;;;;;;;;;;;;25.68;42.24;101239.03;5112740;28;1345;-73
2021/08/17 08:57:45;;;;;;;;;;;;;;;25.71;41.81;101240.59;5112566;28;1050;-68
2021/08/17 09:00:12;;;;;;;;;;;;;;;25.71;41.93;101241.44;5127260;27;1583;-66
2021/08/17 09:02:39;;;;;;;;;;;;;;;25.79;41.45;101222.16;5094534;28;1442;-68
2021/08/17 09:05:06;;;;;;;;;;;;;;;25.75;41.79;101239.38;5092862;28;1565;-73
2021/08/17 09:07:37;;;;;;;;;;;;;;;25.65;42.57;101227.75;5111747;28;1114;-74
2021/08/17 09:10:04;;;;;;;;;;;;;;;25.71;42.97;101241.44;5112116;28;1906;-74
2021/08/17 09:12:32;;;;;;;;;;;;;;;25.71;43.01;101244.13;5111297;28;1130;-73
2021/08/17 09:15:06;;;;;;;;;;;;;;;25.60;42.99;101232.56;5110732;28;1350;-73
2021/08/17 09:17:33;;;;;;;;;;;;;;;25.63;42.52;101243.84;5111727;28;855;-74
2021/08/17 09:20:00;;;;;;;;;;;;;;;25.60;42.29;101243.25;5111561;28;1235;-73
2021/08/17 09:22:27;;;;;;;;;;;;;;;25.65;42.42;101249.09;5111205;28;735;-74
2021/08/17 09:24:55;;;;;;;;;;;;;;;25.67;42.37;101248.00;5111454;28;1014;-73
2021/08/17 09:27:26;;;;;;;;;;;;;;;25.70;42.10;101241.56;5092643;28;1301;-73
2021/08/17 09:30:01;;;;;;;;;;;;;;;25.72;42.10;101242.28;5111898;28;1909;-74
2021/08/17 09:32:28;;;;;;;;;;;;;;;25.73;42.47;101242.16;5111121;28;1168;-73
2021/08/17 09:34:56;;;;;;;;;;;;;;;25.78;42.36;101244.47;5110769;28;1248;-73
2021/08/17 09:37:30;;;;;;;;;;;;;;;25.73;41.82;101242.16;5110982;28;829;-72
2021/08/17 09:39:57;;;;;;;;;;;;;;;25.77;41.11;101242.78;5110886;28;1269;-73
2021/08/17 09:42:31;;;;;;;;;;;;;;;25.84;41.51;101244.00;5092143;28;1158;-73
2021/08/17 09:45:06;;;;;;;;;;;;;;;25.85;41.47;101240.34;5091940;28;1248;-73
2021/08/17 09:47:34;;;;;;;;;;;;;;;25.85;41.89;101241.19;5110700;28;876;-72
2021/08/17 09:50:28;;;;;;;;;;;;;;;25.86;41.40;101234.91;5111041;28;2001;-73
2021/08/17 09:53:27;;;;;;;;;;;;;;;25.85;41.72;101240.34;5107268;28;1758;-74
2021/08/17 09:55:55;;;;;;;;;;;;;;;25.88;41.94;101237.44;5065693;28;1205;-74
2021/08/17 09:58:22;;;;;;;;;;;;;;;25.95;42.21;101241.31;5091873;28;1264;-74
2021/08/17 10:00:58;;;;;;;;;;;;;;;25.92;41.79;101239.75;5110110;28;1318;-73
2021/08/17 10:03:26;;;;;;;;;;;;;;;25.88;41.95;101240.97;5110599;28;1619;-73
2021/08/17 10:05:54;;;;;;;;;;;;;;;25.89;42.32;101237.34;5109974;28;1254;-74
2021/08/17 10:08:22;;;;;;;;;;;;;;;25.91;43.26;101242.53;5110635;28;1050;-74
2021/08/17 10:10:50;;;;;;;;;;;;;;;25.96;43.07;101240.38;5110142;28;1909;-74
2021/08/17 10:13:20;;;;;;;;;;;;;;;26.02;44.03;101242.56;5110404;28;1045;-69
2021/08/17 10:15:49;;;;;;;;;;;;;;;26.01;43.27;101240.84;5109940;28;1499;-70
2021/08/17 10:18:19;;;;;;;;;;;;;;;26.08;43.78;101231.38;5091385;28;1048;-70
2021/08/17 10:20:47;;;;;;;;;;;;;;;26.06;44.14;101227.97;5073916;28;1299;-73
2021/08/17 10:23:17;;;;;;;;;;;;;;;26.11;44.18;101224.94;5109402;28;905;-69
2021/08/17 10:25:48;;;;;;;;;;;;;;;26.09;44.20;101223.22;5079301;28;1686;-69
2021/08/17 10:28:41;;;;;;;;;;;;;;;26.10;43.83;101224.09;5087562;28;1416;-67
2021/08/17 10:31:11;;;;;;;;;;;;;;;26.15;44.04;101218.34;5099635;28;1986;-68
2021/08/17 10:34:01;;;;;;;;;;;;;;;26.15;44.04;101219.25;5106741;28;1228;-67
2021/08/17 10:36:44;;;;;;;;;;;;;;;26.20;43.91;101222.41;5070626;28;1251;-66
2021/08/17 10:39:18;;;;;;;;;;;;;;;26.21;44.13;101220.56;5093313;28;1508;-68
2021/08/17 10:41:46;;;;;;;;;;;;;;;26.22;43.89;101206.25;5108686;28;1275;-70
2021/08/17 10:44:17;;;;;;;;;;;;;;;26.22;44.51;101212.44;5124467;27;1232;-72
2021/08/17 10:46:52;;;;;;;;;;;;;;;26.21;44.39;101217.91;5143987;27;1238;-67
2021/08/17 10:49:27;;;;;;;;;;;;;;;26.22;44.44;101215.13;5096540;28;1627;-70
2021/08/17 10:51:59;;;;;;;;;;;;;;;26.22;44.57;101211.59;5089843;28;1391;-68
2021/08/17 10:54:27;;;;;;;;;;;;;;;26.24;44.39;101209.63;5107888;28;1138;-70
2021/08/17 10:56:53;;;;;;;;;;;;;;;26.29;44.84;101210.97;5106757;28;1212;-68
2021/08/17 10:59:36;;;;;;;;;;;;;;;26.32;44.22;101208.06;5107484;28;1212;-66
2021/08/17 11:02:04;;;;;;;;;;;;;;;26.32;44.99;101207.22;5128280;27;1290;-67
2021/08/17 11:04:35;;;;;;;;;;;;;;;26.31;44.81;101205.50;5107752;27;1530;-69
2021/08/17 11:07:20;;;;;;;;;;;;;;;26.33;44.89;101204.41;5106574;28;1275;-69
2021/08/17 11:09:47;;;;;;;;;;;;;;;26.33;44.73;101195.53;5107290;28;1983;-67
2021/08/17 11:12:14;;;;;;;;;;;;;;;26.35;45.16;101189.13;5106863;28;1228;-74
2021/08/17 11:14:42;;;;;;;;;;;;;;;26.37;44.83;101200.50;5107231;28;1082;-70
2021/08/17 11:17:12;;;;;;;;;;;;;;;26.37;44.87;101195.16;5106719;28;1266;-75
2021/08/17 11:19:42;;;;;;;;;;;;;;;26.38;44.95;101199.53;5071680;28;1345;-70
2021/08/17 11:22:10;;;;;;;;;;;;;;;26.37;45.30;101189.81;5105886;28;1290;-71
2021/08/17 11:24:46;;;;;;;;;;;;;;;26.41;44.84;101190.44;5088160;28;1279;-71
2021/08/17 11:27:16;;;;;;;;;;;;;;;26.41;45.12;101198.44;5106104;28;1538;-75
2021/08/17 11:29:44;;;;;;;;;;;;;;;26.41;45.11;101193.94;5106696;28;1973;-73
2021/08/17 11:32:23;;;;;;;;;;;;;;;26.38;45.24;101188.88;5087864;28;1216;-73
2021/08/17 11:34:52;;;;;;;;;;;;;;;26.45;44.78;101192.69;5115130;27;1259;-74
2021/08/17 11:37:22;;;;;;;;;;;;;;;26.45;44.79;101181.16;5087330;28;1331;-60
2021/08/17 11:39:52;;;;;;;;;;;;;;;26.44;45.07;101183.00;5087095;28;1628;-60
2021/08/17 11:42:22;;;;;;;;;;;;;;;26.46;45.06;101189.06;5106338;28;1267;-60
2021/08/17 11:44:51;;;;;;;;;;;;;;;26.47;45.11;101185.44;5088016;28;1533;-61
2021/08/17 11:47:20;;;;;;;;;;;;;;;26.47;45.25;101185.44;5105897;28;1199;-65
2021/08/17 11:49:50;;;;;;;;;;;;;;;26.53;45.44;101186.75;5104469;28;1917;-68
2021/08/17 11:52:17;;;;;;;;;;;;;;;26.57;44.68;101181.00;5106130;28;1283;-64
2021/08/17 11:54:51;;;;;;;;;;;;;;;26.53;45.41;101182.25;5087541;28;1149;-64
2021/08/17 11:57:21;;;;;;;;;;;;;;;26.51;45.38;101175.31;5105416;28;1185;-65
2021/08/17 11:59:50;;;;;;;;;;;;;;;26.50;45.36;101178.97;5106385;28;1544;-65
2021/08/17 12:02:24;;;;;;;;;;;;;;;26.49;45.78;101166.59;5088842;28;1216;-64
2021/08/17 12:04:53;;;;;;;;;;;;;;;26.50;45.66;101169.16;5106935;28;1120;-64
2021/08/17 12:07:20;;;;;;;;;;;;;;;26.49;45.48;101169.25;5089576;28;1282;-64
2021/08/17 12:09:47;;;;;;;;;;;;;;;26.49;46.09;101156.75;5107909;28;1227;-64
2021/08/17 12:12:16;;;;;;;;;;;;;;;26.51;46.03;101169.97;5108093;28;1180;-64
2021/08/17 12:14:43;;;;;;;;;;;;;;;26.53;46.02;101165.38;5108075;28;1132;-63
2021/08/17 12:17:19;;;;;;;;;;;;;;;26.52;46.11;101161.00;5107752;28;1247;-63
2021/08/17 12:19:47;;;;;;;;;;;;;;;26.51;46.23;101160.13;5105772;28;1445;-63
2021/08/17 12:22:21;;;;;;;;;;;;;;;26.51;46.34;101164.63;5105777;28;1212;-64
2021/08/17 12:24:50;;;;;;;;;;;;;;;26.53;46.42;101155.53;5108289;28;1072;-64
2021/08/17 12:27:24;;;;;;;;;;;;;;;26.55;46.40;101150.06;5107914;28;1204;-63
2021/08/17 12:29:51;;;;;;;;;;;;;;;26.55;46.86;101150.06;5123950;27;1303;-64
2021/08/17 12:32:21;;;;;;;;;;;;;;;26.54;46.64;101148.34;5107667;28;1975;-64
2021/08/17 12:34:50;;;;;;;;;;;;;;;26.55;47.00;101150.06;5108058;28;1261;-64
2021/08/17 12:37:27;;;;;;;;;;;;;;;26.55;46.76;101145.56;5107832;28;1220;-64
2021/08/17 12:39:58;;;;;;;;;;;;;;;26.58;47.11;101144.44;5107897;28;1453;-63
2021/08/17 12:42:26;;;;;;;;;;;;;;;26.56;47.20;101147.28;5107829;28;833;-64
2021/08/17 12:44:52;;;;;;;;;;;;;;;26.57;46.56;101138.25;5089186;28;1186;-63
2021/08/17 12:47:23;;;;;;;;;;;;;;;26.57;46.77;101143.59;5108275;28;1148;-64
2021/08/17 12:50:06;;;;;;;;;;;;;;;26.56;46.47;101141.94;5089020;28;1179;-63
2021/08/17 12:52:39;;;;;;;;;;;;;;;26.58;46.48;101139.97;5106977;28;1577;-64
2021/08/17 12:55:06;;;;;;;;;;;;;;;26.57;46.44;101142.75;5107978;28;1334;-63